Connecticut River @ Wells River, Vt

Connecticut River at Wells River
 Total Drainage Area: 2,644 sq. miles 
 Drainage Area Controlled by Corps Dams: 0 sq. miles (0%) 
 Warning Flow/Stage: 19,700 cfs / 7.5 feet 
 Flood Flow/Stage: 44,500 cfs / 13.0 feet 
Date Time
(Eastern)
Stage
(ft)
Flow
(cfs)
CSM
(cfs / sq. mi.)
Jun-16 07:30 pm 2.55 1,691 .6
Jun-16 06:30 pm 2.55 1,691 .6
Jun-16 05:30 pm 2.54 1,679 .6
Jun-16 04:30 pm 2.54 1,679 .6
Jun-16 03:30 pm 2.56 1,703 .6
Jun-16 02:30 pm 2.58 1,727 .7
Jun-16 01:30 pm 2.58 1,727 .7
Jun-16 12:30 pm 2.58 1,727 .7
Jun-16 11:30 am 2.57 1,715 .7
Jun-16 10:30 am 2.58 1,727 .7
Jun-16 09:30 am 2.56 1,703 .6
Jun-16 08:30 am 2.54 1,679 .6
Jun-16 07:30 am 2.54 1,679 .6
Jun-16 06:30 am 2.56 1,703 .6
Jun-16 05:30 am 2.56 1,703 .6
Jun-16 04:30 am 2.56 1,703 .6
Jun-16 03:30 am 2.55 1,691 .6
Jun-16 02:30 am 2.58 1,727 .7
Jun-16 01:30 am 2.60 1,752 .7
Jun-16 12:30 am 2.60 1,752 .7
Jun-15 11:30 pm 2.57 1,715 .7
Jun-15 10:30 pm 2.55 1,691 .6
Jun-15 09:30 pm 2.59 1,739 .7
Jun-15 08:30 pm 2.64 1,800 .7
Jun-15 07:30 pm 2.65 1,813 .7
Report Generated June 17, 2024 12:19 am